createdAt,value
2023-03-02T00:01:34.216Z,0.70
2023-03-02T00:04:02.748Z,0.70
2023-03-02T00:06:31.516Z,0.70
2023-03-02T00:09:00.651Z,0.70
2023-03-02T00:11:30.088Z,0.60
2023-03-02T00:13:56.975Z,0.60
2023-03-02T00:16:24.030Z,0.60
2023-03-02T00:18:50.897Z,0.60
2023-03-02T00:21:17.712Z,0.60
2023-03-02T00:23:44.890Z,0.60
2023-03-02T00:26:11.767Z,0.50
2023-03-02T00:28:39.395Z,0.50
2023-03-02T00:31:07.202Z,0.50
2023-03-02T00:33:34.696Z,0.50
2023-03-02T00:36:02.558Z,0.50
2023-03-02T00:38:29.620Z,0.50
2023-03-02T00:40:56.616Z,0.40
2023-03-02T00:43:27.854Z,0.40
2023-03-02T00:45:55.314Z,0.40
2023-03-02T00:48:22.817Z,0.40
2023-03-02T00:50:50.899Z,0.30
2023-03-02T00:53:18.079Z,0.30
2023-03-02T00:55:54.909Z,0.20
2023-03-02T00:58:23.112Z,0.20
2023-03-02T01:00:50.628Z,0.10
2023-03-02T01:03:17.811Z,0.10
2023-03-02T01:05:45.410Z,0.20
2023-03-02T01:08:12.843Z,0.20
2023-03-02T01:10:40.136Z,0.30
2023-03-02T01:13:07.649Z,0.20
2023-03-02T01:15:36.864Z,0.20
2023-03-02T01:18:03.877Z,0.20
2023-03-02T01:20:31.187Z,0.20
2023-03-02T01:22:58.044Z,0.30
2023-03-02T01:25:24.974Z,0.30
2023-03-02T01:27:51.977Z,0.30
2023-03-02T01:30:18.838Z,0.30
2023-03-02T01:32:45.785Z,0.20
2023-03-02T01:35:14.104Z,0.20
2023-03-02T01:37:41.131Z,0.20
2023-03-02T01:40:09.407Z,0.20
2023-03-02T01:42:45.483Z,0.20
2023-03-02T01:45:45.894Z,0.20
2023-03-02T01:48:19.486Z,0.20
2023-03-02T01:50:46.897Z,0.20
2023-03-02T01:53:15.818Z,0.10
2023-03-02T01:55:44.175Z,0.10
2023-03-02T01:58:15.708Z,0.20
2023-03-02T02:00:43.584Z,0.10
2023-03-02T02:03:26.370Z,0.10
2023-03-02T02:06:11.949Z,0.10
2023-03-02T02:08:39.603Z,0.00
2023-03-02T02:11:06.752Z,0.00
2023-03-02T02:13:33.621Z,0.00
2023-03-02T02:16:00.995Z,-0.10
2023-03-02T02:18:28.280Z,-0.10
2023-03-02T02:20:56.246Z,-0.10
2023-03-02T02:23:42.701Z,-0.10
2023-03-02T02:26:12.409Z,-0.10
2023-03-02T02:28:57.765Z,-0.10
2023-03-02T02:31:36.516Z,-0.10
2023-03-02T02:34:26.930Z,-0.10
2023-03-02T02:37:05.348Z,0.00
2023-03-02T02:39:37.352Z,-0.10
2023-03-02T02:42:10.369Z,-0.10
2023-03-02T02:44:37.393Z,-0.10
2023-03-02T02:47:05.926Z,-0.10
2023-03-02T02:49:36.693Z,-0.10
2023-03-02T02:52:05.394Z,-0.10
2023-03-02T02:54:34.276Z,-0.10
2023-03-02T02:57:03.230Z,-0.20
2023-03-02T02:59:40.010Z,-0.10
2023-03-02T03:02:10.150Z,-0.10
2023-03-02T03:04:37.106Z,-0.10
2023-03-02T03:07:06.339Z,-0.10
2023-03-02T03:09:33.622Z,-0.10
2023-03-02T03:12:08.686Z,-0.20
2023-03-02T03:14:39.333Z,-0.20
2023-03-02T03:17:13.526Z,-0.20
2023-03-02T03:19:47.739Z,-0.20
2023-03-02T03:22:17.397Z,-0.20
2023-03-02T03:24:47.141Z,-0.20
2023-03-02T03:27:16.353Z,-0.20
2023-03-02T03:29:48.290Z,-0.20
2023-03-02T03:32:18.688Z,-0.20
2023-03-02T03:34:46.959Z,-0.20
2023-03-02T03:37:21.143Z,-0.20
2023-03-02T03:39:48.752Z,-0.20
2023-03-02T03:42:17.377Z,-0.30
2023-03-02T03:44:45.406Z,-0.30
2023-03-02T03:47:12.697Z,-0.20
2023-03-02T03:49:39.936Z,-0.20
2023-03-02T03:52:08.286Z,-0.20
2023-03-02T03:54:35.348Z,-0.20
2023-03-02T03:57:02.308Z,-0.20
2023-03-02T03:59:29.313Z,-0.20
2023-03-02T04:02:01.645Z,-0.20
2023-03-02T04:04:34.842Z,-0.30
2023-03-02T04:07:09.377Z,-0.30
2023-03-02T04:09:38.145Z,-0.30
2023-03-02T04:12:08.311Z,-0.30
2023-03-02T04:14:35.966Z,-0.30
2023-03-02T04:17:05.415Z,-0.30
2023-03-02T04:19:35.506Z,-0.30
2023-03-02T04:22:04.258Z,-0.30
2023-03-02T04:24:32.492Z,-0.30
2023-03-02T04:27:02.183Z,-0.20
2023-03-02T04:29:29.863Z,-0.20
2023-03-02T04:31:56.942Z,-0.30
2023-03-02T04:34:26.477Z,-0.30
2023-03-02T04:36:53.747Z,-0.20
2023-03-02T04:39:20.887Z,-0.10
2023-03-02T04:41:51.549Z,-0.20
2023-03-02T04:44:18.961Z,-0.20
2023-03-02T04:46:46.709Z,-0.20
2023-03-02T04:49:14.900Z,-0.20
2023-03-02T04:51:44.050Z,-0.20
2023-03-02T04:54:20.362Z,-0.20
2023-03-02T04:56:51.547Z,-0.30
2023-03-02T04:59:26.121Z,-0.30
2023-03-02T05:02:00.352Z,-0.20
2023-03-02T05:04:28.274Z,-0.20
2023-03-02T05:06:55.182Z,-0.20
2023-03-02T05:09:27.205Z,-0.30
2023-03-02T05:11:58.551Z,-0.30
2023-03-02T05:14:26.191Z,-0.30
2023-03-02T05:16:53.596Z,-0.40
2023-03-02T05:19:20.455Z,-0.40
2023-03-02T05:21:47.540Z,-0.40
2023-03-02T05:24:14.968Z,-0.40
2023-03-02T05:26:41.821Z,-0.40
2023-03-02T05:29:09.383Z,-0.30
2023-03-02T05:31:42.833Z,-0.40
2023-03-02T05:34:11.914Z,-0.40
2023-03-02T05:36:39.017Z,-0.40
2023-03-02T05:39:06.953Z,-0.40
2023-03-02T05:41:35.748Z,-0.40
2023-03-02T05:44:03.890Z,-0.40
2023-03-02T05:46:31.154Z,-0.40
2023-03-02T05:48:58.377Z,-0.40
2023-03-02T05:51:25.349Z,-0.30
2023-03-02T05:53:52.184Z,-0.30
2023-03-02T05:56:22.355Z,-0.40
2023-03-02T05:58:49.189Z,-0.40
2023-03-02T06:01:16.088Z,-0.40
2023-03-02T06:03:43.626Z,-0.40
2023-03-02T06:06:14.184Z,-0.40
2023-03-02T06:08:42.864Z,-0.40
2023-03-02T06:11:11.212Z,-0.40
2023-03-02T06:13:38.516Z,-0.40
2023-03-02T06:16:05.838Z,-0.40
2023-03-02T06:18:32.875Z,-0.40
2023-03-02T06:20:59.991Z,-0.40
2023-03-02T06:23:27.032Z,-0.40
2023-03-02T06:25:54.112Z,-0.40
2023-03-02T06:28:21.944Z,-0.40
2023-03-02T06:30:49.636Z,-0.40
2023-03-02T06:33:19.421Z,-0.40
2023-03-02T06:35:46.548Z,-0.30
2023-03-02T06:38:13.597Z,-0.40
2023-03-02T06:40:40.404Z,-0.30
2023-03-02T06:43:07.313Z,-0.30
2023-03-02T06:45:34.361Z,-0.30
2023-03-02T06:48:02.042Z,-0.30
2023-03-02T06:50:29.216Z,-0.30
2023-03-02T06:52:56.951Z,-0.30
2023-03-02T06:55:23.879Z,-0.30
2023-03-02T06:57:50.845Z,-0.30
2023-03-02T07:00:25.832Z,-0.20
2023-03-02T07:02:54.346Z,-0.20
2023-03-02T07:05:23.536Z,-0.10
2023-03-02T07:07:51.331Z,-0.20
2023-03-02T07:10:18.676Z,-0.20
2023-03-02T07:12:45.837Z,-0.20
2023-03-02T07:15:14.658Z,-0.10
2023-03-02T07:17:44.238Z,-0.10
2023-03-02T07:20:14.410Z,-0.10
2023-03-02T07:22:41.572Z,-0.10
2023-03-02T07:25:10.015Z,-0.10
2023-03-02T07:27:37.694Z,0.00
2023-03-02T07:30:05.876Z,0.00
2023-03-02T07:32:33.212Z,0.00
2023-03-02T07:35:00.098Z,0.00
2023-03-02T07:37:27.087Z,0.00
2023-03-02T07:39:53.843Z,0.00
2023-03-02T07:42:21.238Z,0.10
2023-03-02T07:44:53.974Z,0.10
2023-03-02T07:47:20.899Z,0.10
2023-03-02T07:49:47.655Z,0.10
2023-03-02T07:52:14.684Z,0.20
2023-03-02T07:54:41.423Z,0.20
2023-03-02T07:57:08.335Z,0.20
2023-03-02T07:59:35.072Z,0.20
2023-03-02T08:02:02.234Z,0.20
2023-03-02T08:04:29.037Z,0.30
2023-03-02T08:06:56.038Z,0.50
2023-03-02T08:09:22.819Z,0.60
2023-03-02T08:11:49.933Z,0.60
2023-03-02T08:14:16.913Z,0.50
2023-03-02T08:16:44.559Z,0.50
2023-03-02T08:19:11.687Z,0.60
2023-03-02T08:21:38.716Z,0.60
2023-03-02T08:24:06.371Z,0.70
2023-03-02T08:26:33.345Z,0.80
2023-03-02T08:29:00.170Z,0.90
2023-03-02T08:31:27.599Z,0.90
2023-03-02T08:33:54.494Z,1.00
2023-03-02T08:36:21.817Z,1.10
2023-03-02T08:38:49.396Z,1.20
2023-03-02T08:41:19.848Z,1.20
2023-03-02T08:43:47.248Z,1.20
2023-03-02T08:46:17.596Z,1.10
2023-03-02T08:48:45.261Z,1.00
2023-03-02T08:51:15.374Z,1.20
2023-03-02T08:53:45.638Z,1.30
2023-03-02T08:56:17.065Z,1.30
2023-03-02T08:58:43.925Z,1.40
2023-03-02T09:01:22.437Z,1.50
2023-03-02T09:03:49.363Z,1.50
2023-03-02T09:06:16.601Z,1.20
2023-03-02T09:08:43.828Z,1.40
2023-03-02T09:11:10.815Z,1.50
2023-03-02T09:13:38.176Z,1.60
2023-03-02T09:16:05.732Z,1.60
2023-03-02T09:18:32.735Z,1.60
2023-03-02T09:21:00.081Z,1.60
2023-03-02T09:23:29.890Z,1.60
2023-03-02T09:25:58.735Z,1.60
2023-03-02T09:28:25.510Z,1.70
2023-03-02T09:30:54.127Z,1.60
2023-03-02T09:33:21.813Z,1.60
2023-03-02T09:35:50.341Z,1.60
2023-03-02T09:38:18.803Z,1.80
2023-03-02T09:41:13.710Z,1.90
2023-03-02T09:43:49.058Z,2.00
2023-03-02T09:46:32.588Z,2.10
2023-03-02T09:49:14.658Z,2.00
2023-03-02T09:52:09.652Z,1.90
2023-03-02T09:54:38.017Z,1.90
2023-03-02T09:57:20.907Z,1.90
2023-03-02T09:59:54.160Z,2.10
2023-03-02T10:02:23.754Z,2.10
2023-03-02T10:04:54.302Z,2.10
2023-03-02T10:07:36.768Z,2.30
2023-03-02T10:10:26.422Z,2.30
2023-03-02T10:13:18.163Z,2.30
2023-03-02T10:15:47.994Z,2.40
2023-03-02T10:18:35.351Z,2.40
2023-03-02T10:21:21.611Z,2.60
2023-03-02T10:24:13.639Z,2.30
2023-03-02T10:26:46.593Z,2.40
2023-03-02T10:29:40.069Z,2.60
2023-03-02T10:32:24.182Z,2.50
2023-03-02T10:34:53.560Z,2.60
2023-03-02T10:37:25.197Z,2.40
2023-03-02T10:39:52.977Z,2.20
2023-03-02T10:42:27.308Z,2.30
2023-03-02T10:44:59.108Z,2.30
2023-03-02T10:47:28.890Z,2.30
2023-03-02T10:49:57.732Z,2.20
2023-03-02T10:52:27.699Z,2.40
2023-03-02T10:55:05.946Z,2.40
2023-03-02T10:57:56.746Z,2.50
2023-03-02T11:00:26.415Z,2.70
2023-03-02T11:02:59.563Z,2.70
2023-03-02T11:05:31.128Z,2.40
2023-03-02T11:08:05.101Z,2.70
2023-03-02T11:10:37.011Z,2.60
2023-03-02T11:13:18.202Z,2.40
2023-03-02T11:15:48.255Z,2.80
2023-03-02T11:18:42.116Z,3.00
2023-03-02T11:21:17.039Z,3.50
2023-03-02T11:24:05.570Z,3.40
2023-03-02T11:26:50.207Z,3.50
2023-03-02T11:29:39.981Z,3.50
2023-03-02T11:32:37.370Z,3.60
2023-03-02T11:35:13.740Z,3.40
2023-03-02T11:37:49.781Z,3.20
2023-03-02T11:40:34.406Z,2.90
2023-03-02T11:43:04.903Z,3.20
2023-03-02T11:45:36.729Z,3.10
2023-03-02T11:48:22.753Z,3.10
2023-03-02T11:51:11.901Z,3.30
2023-03-02T11:54:03.994Z,3.30
2023-03-02T11:56:36.787Z,2.80
2023-03-02T11:59:14.962Z,2.50
2023-03-02T12:01:45.179Z,2.60
2023-03-02T12:04:34.151Z,2.80
2023-03-02T12:07:04.064Z,2.90
2023-03-02T12:09:37.186Z,3.20
2023-03-02T12:12:19.406Z,3.40
2023-03-02T12:14:46.356Z,3.40
2023-03-02T12:17:25.612Z,3.40
2023-03-02T12:20:08.109Z,3.40
2023-03-02T12:22:37.937Z,3.50
2023-03-02T12:25:20.032Z,3.30
2023-03-02T12:27:49.648Z,3.20
2023-03-02T12:30:23.851Z,3.30
2023-03-02T12:33:12.798Z,3.50
2023-03-02T12:35:40.093Z,3.30
2023-03-02T12:38:29.060Z,3.20
2023-03-02T12:41:25.164Z,3.00
2023-03-02T12:44:13.779Z,3.20
2023-03-02T12:46:45.706Z,3.10
2023-03-02T12:49:43.389Z,3.00
2023-03-02T12:52:31.643Z,2.70
2023-03-02T12:55:16.434Z,2.70
2023-03-02T12:57:51.755Z,2.80
2023-03-02T13:00:22.089Z,2.90
2023-03-02T13:02:51.568Z,3.00
2023-03-02T13:05:21.450Z,3.20
2023-03-02T13:08:01.624Z,3.00
2023-03-02T13:10:40.438Z,3.00
2023-03-02T13:13:27.039Z,3.10
2023-03-02T13:15:59.179Z,3.00
2023-03-02T13:18:31.956Z,2.90
2023-03-02T13:21:01.081Z,2.70
2023-03-02T13:23:29.724Z,2.60
2023-03-02T13:26:02.379Z,2.80
2023-03-02T13:28:38.437Z,2.90
2023-03-02T13:31:16.710Z,2.70
2023-03-02T13:33:46.174Z,2.80
2023-03-02T13:36:40.273Z,2.90
2023-03-02T13:39:17.825Z,2.80
2023-03-02T13:41:59.382Z,2.70
2023-03-02T13:44:34.434Z,2.60
2023-03-02T13:47:02.497Z,2.50
2023-03-02T13:49:35.369Z,2.60
2023-03-02T13:52:16.216Z,2.20
2023-03-02T13:54:45.613Z,2.00
2023-03-02T13:57:18.268Z,2.10
2023-03-02T13:59:45.357Z,2.40
2023-03-02T14:02:28.080Z,2.40
2023-03-02T14:04:55.829Z,2.50
2023-03-02T14:07:22.890Z,2.50
2023-03-02T14:09:49.646Z,2.60
2023-03-02T14:12:25.407Z,2.50
2023-03-02T14:14:54.436Z,2.40
2023-03-02T14:17:24.398Z,2.50
2023-03-02T14:19:55.372Z,2.50
2023-03-02T14:22:25.010Z,2.60
2023-03-02T14:24:51.848Z,2.60
2023-03-02T14:27:19.220Z,2.60
2023-03-02T14:29:46.966Z,2.40
2023-03-02T14:32:15.688Z,2.30
2023-03-02T14:34:42.864Z,2.30
2023-03-02T14:37:15.551Z,2.40
2023-03-02T14:39:56.866Z,2.50
2023-03-02T14:42:24.114Z,2.30
2023-03-02T14:44:51.783Z,2.30
2023-03-02T14:47:27.718Z,2.40
2023-03-02T14:49:55.330Z,2.40
2023-03-02T14:52:29.724Z,2.30
2023-03-02T14:55:01.459Z,2.40
2023-03-02T14:57:33.624Z,2.50
2023-03-02T15:00:00.563Z,2.40
2023-03-02T15:02:28.144Z,2.20
2023-03-02T15:04:57.244Z,2.20
2023-03-02T15:07:26.132Z,2.20
2023-03-02T15:09:52.987Z,2.30
2023-03-02T15:12:21.957Z,2.30
2023-03-02T15:14:49.007Z,2.40
2023-03-02T15:17:15.931Z,2.50
2023-03-02T15:19:42.675Z,2.50
2023-03-02T15:22:09.540Z,2.40
2023-03-02T15:24:36.298Z,2.50
2023-03-02T15:27:03.325Z,2.40
2023-03-02T15:29:30.369Z,2.60
2023-03-02T15:31:57.305Z,2.50
2023-03-02T15:34:24.186Z,2.50
2023-03-02T15:36:50.962Z,2.50
2023-03-02T15:39:17.804Z,2.60
2023-03-02T15:41:45.066Z,2.70
2023-03-02T15:44:23.800Z,2.80
2023-03-02T15:46:53.345Z,2.70
2023-03-02T15:49:22.951Z,2.80
2023-03-02T15:51:51.954Z,2.80
2023-03-02T15:54:19.481Z,2.70
2023-03-02T15:56:51.857Z,2.60
2023-03-02T15:59:27.352Z,2.60
2023-03-02T16:01:54.811Z,2.60
2023-03-02T16:04:25.751Z,2.40
2023-03-02T16:06:52.778Z,2.30
2023-03-02T16:09:19.597Z,2.40
2023-03-02T16:11:47.984Z,2.40
2023-03-02T16:14:15.798Z,2.30
2023-03-02T16:16:44.023Z,2.30
2023-03-02T16:19:13.378Z,2.20
2023-03-02T16:21:40.373Z,2.10
2023-03-02T16:24:07.962Z,2.10
2023-03-02T16:26:37.507Z,2.00
2023-03-02T16:29:08.029Z,1.90
2023-03-02T16:31:37.844Z,1.80
2023-03-02T16:34:08.892Z,1.70
2023-03-02T16:36:37.829Z,1.70
2023-03-02T16:39:06.612Z,1.80
2023-03-02T16:41:33.796Z,1.70
2023-03-02T16:44:01.833Z,1.50
2023-03-02T16:46:31.818Z,1.60
2023-03-02T16:48:58.874Z,1.60
2023-03-02T16:51:25.908Z,1.50
2023-03-02T16:53:52.818Z,1.60
2023-03-02T16:56:19.848Z,1.50
2023-03-02T16:58:47.103Z,1.50
2023-03-02T17:01:20.131Z,1.40
2023-03-02T17:03:49.246Z,1.50
2023-03-02T17:06:17.778Z,1.50
2023-03-02T17:08:44.735Z,1.50
2023-03-02T17:11:11.665Z,1.40
2023-03-02T17:13:38.581Z,1.30
2023-03-02T17:16:05.684Z,1.20
2023-03-02T17:18:32.849Z,1.10
2023-03-02T17:21:00.697Z,1.00
2023-03-02T17:23:28.203Z,1.00
2023-03-02T17:25:56.150Z,0.80
2023-03-02T17:28:23.788Z,0.70
2023-03-02T17:30:51.047Z,0.60
2023-03-02T17:33:18.264Z,0.40
2023-03-02T17:35:46.212Z,0.40
2023-03-02T17:38:14.398Z,0.30
2023-03-02T17:40:41.882Z,0.20
2023-03-02T17:43:08.806Z,0.10
2023-03-02T17:45:35.893Z,0.00
2023-03-02T17:48:02.961Z,-0.10
2023-03-02T17:50:31.855Z,-0.30
2023-03-02T17:52:59.786Z,-0.40
2023-03-02T17:55:27.641Z,-0.50
2023-03-02T17:57:54.734Z,-0.40
2023-03-02T18:00:25.780Z,-0.40
2023-03-02T18:02:53.527Z,-0.40
2023-03-02T18:05:21.545Z,-0.40
2023-03-02T18:07:48.581Z,-0.40
2023-03-02T18:10:15.693Z,-0.50
2023-03-02T18:12:42.550Z,-0.60
2023-03-02T18:15:10.062Z,-0.60
2023-03-02T18:17:37.005Z,-0.80
2023-03-02T18:20:04.396Z,-0.90
2023-03-02T18:22:31.323Z,-1.00
2023-03-02T18:24:58.220Z,-1.20
2023-03-02T18:27:26.259Z,-1.40
2023-03-02T18:29:53.070Z,-1.50
2023-03-02T18:32:21.099Z,-1.60
2023-03-02T18:34:48.044Z,-1.70
2023-03-02T18:37:15.123Z,-1.80
2023-03-02T18:39:41.934Z,-1.90
2023-03-02T18:42:09.506Z,-1.70
2023-03-02T18:44:37.332Z,-1.70
2023-03-02T18:47:04.475Z,-1.90
2023-03-02T18:49:31.580Z,-1.90
2023-03-02T18:51:59.704Z,-1.90
2023-03-02T18:54:26.653Z,-2.00
2023-03-02T18:56:53.665Z,-2.10
2023-03-02T18:59:20.523Z,-2.00
2023-03-02T19:01:47.455Z,-2.00
2023-03-02T19:04:15.139Z,-1.80
2023-03-02T19:06:42.775Z,-1.80
2023-03-02T19:09:10.414Z,-1.70
2023-03-02T19:11:37.479Z,-1.50
2023-03-02T19:14:04.464Z,-1.40
2023-03-02T19:16:31.672Z,-1.40
2023-03-02T19:18:58.590Z,-1.30
2023-03-02T19:21:25.471Z,-1.30
2023-03-02T19:23:52.320Z,-1.40
2023-03-02T19:26:19.178Z,-1.60
2023-03-02T19:28:46.132Z,-1.80
2023-03-02T19:31:13.632Z,-1.80
2023-03-02T19:33:42.449Z,-1.80
2023-03-02T19:36:10.041Z,-1.90
2023-03-02T19:38:41.426Z,-2.00
2023-03-02T19:41:17.275Z,-2.00
2023-03-02T19:43:45.868Z,-1.90
2023-03-02T19:46:14.454Z,-1.70
2023-03-02T19:48:42.095Z,-1.60
2023-03-02T19:51:09.352Z,-1.60
2023-03-02T19:53:38.440Z,-1.50
2023-03-02T19:56:08.337Z,-1.70
2023-03-02T19:58:36.631Z,-1.80
2023-03-02T20:01:04.154Z,-1.90
2023-03-02T20:03:31.504Z,-2.00
2023-03-02T20:05:59.603Z,-2.20
2023-03-02T20:08:26.685Z,-2.30
2023-03-02T20:10:53.645Z,-2.30
2023-03-02T20:13:20.698Z,-2.20
2023-03-02T20:15:48.292Z,-2.00
2023-03-02T20:18:18.878Z,-2.00
2023-03-02T20:20:47.473Z,-2.10
2023-03-02T20:23:14.739Z,-2.30
2023-03-02T20:25:42.164Z,-2.40
2023-03-02T20:28:11.903Z,-2.40
2023-03-02T20:30:45.069Z,-2.40
2023-03-02T20:33:13.259Z,-2.30
2023-03-02T20:35:43.729Z,-2.20
2023-03-02T20:38:16.820Z,-2.20
2023-03-02T20:40:44.219Z,-2.10
2023-03-02T20:43:11.328Z,-2.10
2023-03-02T20:45:38.685Z,-2.00
2023-03-02T20:48:06.730Z,-2.00
2023-03-02T20:50:34.986Z,-1.90
2023-03-02T20:53:02.288Z,-2.00
2023-03-02T20:55:29.750Z,-1.90
2023-03-02T20:57:57.091Z,-1.80
2023-03-02T21:00:27.574Z,-1.80
2023-03-02T21:02:54.869Z,-2.00
2023-03-02T21:05:22.220Z,-2.10
2023-03-02T21:07:49.618Z,-2.30
2023-03-02T21:10:26.917Z,-2.40
2023-03-02T21:12:54.171Z,-2.40
2023-03-02T21:15:22.794Z,-2.50
2023-03-02T21:17:50.821Z,-2.60
2023-03-02T21:20:18.366Z,-2.70
2023-03-02T21:22:46.263Z,-2.60
2023-03-02T21:25:13.596Z,-2.70
2023-03-02T21:27:41.105Z,-2.70
2023-03-02T21:30:22.366Z,-2.80
2023-03-02T21:32:49.348Z,-2.80
2023-03-02T21:35:21.905Z,-2.80
2023-03-02T21:37:51.325Z,-2.80
2023-03-02T21:40:25.389Z,-2.80
2023-03-02T21:42:52.225Z,-2.90
2023-03-02T21:45:19.691Z,-3.00
2023-03-02T21:47:46.756Z,-3.00
2023-03-02T21:50:18.865Z,-3.00
2023-03-02T21:52:45.856Z,-3.10
2023-03-02T21:55:13.572Z,-3.00
2023-03-02T21:57:41.170Z,-3.00
2023-03-02T22:00:10.018Z,-3.20
2023-03-02T22:02:37.741Z,-3.20
2023-03-02T22:05:04.971Z,-3.20
2023-03-02T22:07:31.960Z,-3.20
2023-03-02T22:09:58.976Z,-3.30
2023-03-02T22:12:26.467Z,-3.30
2023-03-02T22:14:53.984Z,-3.40
2023-03-02T22:17:24.670Z,-3.40
2023-03-02T22:19:52.488Z,-3.30
2023-03-02T22:22:24.057Z,-3.20
2023-03-02T22:24:54.351Z,-2.90
2023-03-02T22:27:24.199Z,-2.90
2023-03-02T22:29:53.373Z,-2.80
2023-03-02T22:32:29.201Z,-2.80
2023-03-02T22:35:01.532Z,-2.70
2023-03-02T22:37:33.089Z,-2.60
2023-03-02T22:40:16.258Z,-2.60
2023-03-02T22:42:43.082Z,-2.70
2023-03-02T22:45:22.278Z,-2.70
2023-03-02T22:47:51.569Z,-2.70
2023-03-02T22:50:23.224Z,-2.60
2023-03-02T22:52:51.472Z,-2.40
2023-03-02T22:55:30.156Z,-2.10
2023-03-02T22:57:57.476Z,-2.10
2023-03-02T23:00:38.654Z,-2.00
2023-03-02T23:03:20.600Z,-1.90
2023-03-02T23:05:51.757Z,-1.90
2023-03-02T23:08:28.608Z,-1.90
2023-03-02T23:10:57.951Z,-1.90
2023-03-02T23:13:31.115Z,-2.00
2023-03-02T23:15:58.469Z,-2.10
2023-03-02T23:18:29.397Z,-2.10
2023-03-02T23:20:56.709Z,-2.10
2023-03-02T23:23:24.644Z,-2.10
2023-03-02T23:25:51.530Z,-2.20
2023-03-02T23:28:18.413Z,-2.00
2023-03-02T23:30:45.477Z,-2.00
2023-03-02T23:33:12.406Z,-1.90
2023-03-02T23:35:39.950Z,-2.00
2023-03-02T23:38:06.881Z,-1.80
2023-03-02T23:40:33.877Z,-1.90
2023-03-02T23:43:00.888Z,-2.00
2023-03-02T23:45:28.230Z,-2.00
2023-03-02T23:47:55.153Z,-2.10
2023-03-02T23:50:21.987Z,-2.10
2023-03-02T23:52:49.312Z,-2.20
2023-03-02T23:55:16.577Z,-2.20
2023-03-02T23:57:43.723Z,-2.20
